Time;durP1;ratioP1;P1;durP2;ratioP2;P2;SDS_P1;SDS_P2;PMS_P1;PMS_P2;Temp;Humidity;BMP_temperature;BMP_pressure;BME280_temperature;BME280_humidity;BME280_pressure;Samples;Min_cycle;Max_cycle;Signal;HPM_P1;HPM_P2
2021/11/15 00:00:31;;;;;;;18.40;9.60;;;7.90;89.10;;;;;;5032398;28;20386;-87
2021/11/15 00:02:58;;;;;;;17.70;9.32;;;7.90;88.90;;;;;;5031912;28;20382;-91
2021/11/15 00:05:23;;;;;;;15.75;8.18;;;7.90;89.20;;;;;;5014586;28;20444;-90
2021/11/15 00:07:49;;;;;;;15.87;8.50;;;7.90;89.20;;;;;;5031903;28;20506;-92
2021/11/15 00:10:18;;;;;;;15.67;8.60;;;7.90;89.00;;;;;;5014572;28;20390;-90
2021/11/15 00:12:51;;;;;;;20.43;10.03;;;7.90;89.00;;;;;;5014600;28;20387;-91
2021/11/15 00:15:18;;;;;;;16.53;8.73;;;7.90;89.30;;;;;;5031929;28;20391;-91
2021/11/15 00:17:44;;;;;;;16.95;9.40;;;7.90;89.10;;;;;;5014584;28;20423;-90
2021/11/15 00:20:10;;;;;;;22.55;10.23;;;7.80;89.10;;;;;;5031752;28;20493;-90
2021/11/15 00:22:35;;;;;;;19.95;9.52;;;7.80;88.90;;;;;;5032076;28;20375;-90
2021/11/15 00:25:03;;;;;;;17.75;9.02;;;7.80;89.20;;;;;;5014236;28;20466;-89
2021/11/15 00:27:29;;;;;;;17.40;9.17;;;7.80;89.20;;;;;;5031915;28;20800;-89
2021/11/15 00:29:58;;;;;;;18.30;8.93;;;7.80;89.20;;;;;;5031597;28;20759;-91
2021/11/15 00:32:24;;;;;;;18.17;9.23;;;7.80;89.30;;;;;;5032031;28;20482;-91
2021/11/15 00:34:50;;;;;;;18.20;9.10;;;7.80;89.10;;;;;;5031711;28;20430;-90
2021/11/15 00:37:15;;;;;;;17.67;9.07;;;7.80;89.30;;;;;;5031824;28;20383;-91
2021/11/15 00:39:41;;;;;;;17.30;9.13;;;7.70;89.10;;;;;;5014048;28;20442;-91
2021/11/15 00:42:07;;;;;;;18.73;9.10;;;7.80;89.30;;;;;;5014133;28;20864;-90
2021/11/15 00:44:32;;;;;;;17.57;9.53;;;7.70;89.30;;;;;;5031533;28;20379;-90
2021/11/15 00:46:58;;;;;;;17.60;9.10;;;7.70;89.40;;;;;;5031649;28;20947;-90
2021/11/15 00:49:23;;;;;;;15.43;8.60;;;7.70;89.50;;;;;;5031952;28;20892;-90
2021/11/15 00:51:49;;;;;;;16.27;8.95;;;7.70;89.30;;;;;;5031561;28;20379;-90
2021/11/15 00:54:14;;;;;;;18.80;8.73;;;7.70;89.50;;;;;;5014227;28;20395;-86
2021/11/15 00:56:40;;;;;;;21.20;9.53;;;7.60;89.60;;;;;;5031404;28;20383;-90
2021/11/15 00:59:05;;;;;;;19.00;9.57;;;7.60;89.60;;;;;;5031621;28;20419;-88
2021/11/15 01:01:31;;;;;;;19.17;10.23;;;7.60;89.40;;;;;;5031502;28;20372;-89
2021/11/15 01:03:57;;;;;;;22.10;9.98;;;7.60;89.50;;;;;;5014110;28;20883;-91
2021/11/15 01:06:22;;;;;;;17.07;8.90;;;7.70;89.50;;;;;;5031425;28;20383;-91
2021/11/15 01:08:48;;;;;;;20.88;9.70;;;7.70;89.50;;;;;;5031560;28;20737;-90
2021/11/15 01:11:14;;;;;;;18.05;8.93;;;7.70;89.50;;;;;;5031878;28;20383;-90
2021/11/15 01:13:39;;;;;;;21.48;9.95;;;7.70;89.40;;;;;;5013922;28;20769;-90
2021/11/15 01:16:07;;;;;;;20.27;9.45;;;7.70;89.40;;;;;;5014070;28;20792;-89
2021/11/15 01:18:34;;;;;;;18.75;10.10;;;7.70;89.30;;;;;;5031418;28;20891;-89
2021/11/15 01:21:00;;;;;;;18.63;9.43;;;7.70;89.50;;;;;;5014057;28;20384;-89
2021/11/15 01:23:25;;;;;;;19.98;10.20;;;7.60;89.60;;;;;;5031533;28;20902;-90
2021/11/15 01:25:51;;;;;;;20.43;9.80;;;7.60;89.60;;;;;;5016647;28;20387;-91
2021/11/15 01:28:16;;;;;;;20.10;9.70;;;7.60;89.80;;;;;;5034824;28;20383;-91
2021/11/15 01:30:42;;;;;;;20.27;10.65;;;7.60;89.60;;;;;;5034789;28;20445;-90
2021/11/15 01:33:08;;;;;;;20.52;10.48;;;7.50;89.60;;;;;;5035190;28;20379;-90
2021/11/15 01:35:34;;;;;;;20.45;10.20;;;7.60;89.50;;;;;;5017252;28;20379;-90
2021/11/15 01:38:00;;;;;;;20.90;10.55;;;7.60;89.80;;;;;;5035144;28;20387;-91
2021/11/15 01:40:29;;;;;;;20.80;10.77;;;7.50;89.70;;;;;;5034578;28;20557;-91
2021/11/15 01:42:55;;;;;;;20.00;10.10;;;7.50;89.80;;;;;;5016934;28;20387;-91
2021/11/15 01:45:25;;;;;;;18.65;9.90;;;7.60;89.80;;;;;;5016940;28;20869;-90
2021/11/15 01:47:53;;;;;;;21.85;10.93;;;7.50;89.70;;;;;;5017182;28;20445;-91
2021/11/15 01:50:20;;;;;;;22.33;10.32;;;7.50;89.70;;;;;;5016856;28;20399;-89
2021/11/15 01:52:46;;;;;;;24.30;10.73;;;7.40;89.90;;;;;;5017093;28;20954;-90
2021/11/15 01:55:14;;;;;;;22.33;11.05;;;7.40;90.00;;;;;;5034510;28;20423;-88
2021/11/15 01:57:41;;;;;;;25.00;11.02;;;7.40;90.00;;;;;;5034347;28;20447;-90
2021/11/15 02:00:11;;;;;;;21.90;10.68;;;7.40;89.90;;;;;;5016765;28;20411;-90
2021/11/15 02:02:36;;;;;;;21.27;11.47;;;7.40;89.90;;;;;;5016496;28;20430;-91
2021/11/15 02:05:02;;;;;;;24.57;11.43;;;7.40;90.10;;;;;;5034375;28;20410;-90
2021/11/15 02:07:28;;;;;;;27.20;12.57;;;7.40;90.20;;;;;;5033877;28;20733;-91
2021/11/15 02:09:54;;;;;;;26.42;12.05;;;7.40;90.10;;;;;;5034501;28;20394;-90
2021/11/15 02:12:19;;;;;;;22.07;10.70;;;7.40;90.10;;;;;;5034179;28;20379;-90
2021/11/15 02:14:45;;;;;;;20.80;11.10;;;7.40;90.20;;;;;;5034478;28;20538;-90
2021/11/15 02:17:11;;;;;;;24.97;11.40;;;7.40;90.10;;;;;;5034126;28;20458;-91
2021/11/15 02:19:38;;;;;;;21.73;10.10;;;7.40;90.00;;;;;;5034117;28;20419;-87
2021/11/15 02:22:04;;;;;;;23.48;11.60;;;7.50;89.90;;;;;;5033804;28;20376;-90
2021/11/15 02:24:31;;;;;;;23.87;11.23;;;7.40;90.10;;;;;;5033734;28;20379;-91
2021/11/15 02:26:56;;;;;;;22.80;10.98;;;7.40;90.20;;;;;;5034096;28;20384;-91
2021/11/15 02:29:22;;;;;;;23.20;10.77;;;7.40;90.00;;;;;;5015982;28;20451;-90
2021/11/15 02:31:47;;;;;;;23.80;10.97;;;7.40;90.10;;;;;;5016533;28;20394;-91
2021/11/15 02:34:13;;;;;;;22.60;11.50;;;7.40;90.20;;;;;;5033988;28;20383;-91
2021/11/15 02:36:39;;;;;;;23.13;11.50;;;7.40;90.30;;;;;;5032914;28;20525;-91
2021/11/15 02:39:05;;;;;;;24.90;12.27;;;7.40;90.10;;;;;;5033659;28;20523;-91
2021/11/15 02:41:31;;;;;;;24.92;12.68;;;7.40;90.20;;;;;;5016090;28;20387;-90
2021/11/15 02:43:58;;;;;;;25.70;11.70;;;7.40;90.40;;;;;;5033538;28;20379;-91
2021/11/15 02:46:24;;;;;;;25.60;11.80;;;7.40;90.40;;;;;;5033368;28;20868;-90
2021/11/15 02:48:50;;;;;;;25.35;11.80;;;7.40;90.40;;;;;;5033121;28;20475;-91
2021/11/15 02:51:16;;;;;;;23.40;11.27;;;7.40;90.10;;;;;;5016012;28;20769;-90
2021/11/15 02:53:43;;;;;;;23.58;11.02;;;7.40;90.40;;;;;;5031818;28;20431;-90
2021/11/15 02:56:08;;;;;;;24.85;11.82;;;7.40;90.30;;;;;;5033330;28;20759;-90
2021/11/15 02:58:34;;;;;;;26.93;12.03;;;7.30;90.40;;;;;;5033473;28;20403;-89
2021/11/15 03:01:08;;;;;;;24.17;11.65;;;7.40;90.40;;;;;;5015431;28;20398;-89
2021/11/15 03:03:33;;;;;;;23.45;11.68;;;7.40;90.30;;;;;;5015843;28;20482;-91
2021/11/15 03:05:59;;;;;;;25.20;11.67;;;7.40;90.20;;;;;;5033052;28;20527;-90
2021/11/15 03:08:25;;;;;;;24.38;11.52;;;7.40;90.20;;;;;;5033598;28;20432;-92
2021/11/15 03:10:58;;;;;;;24.02;12.30;;;7.40;90.20;;;;;;5032887;28;20383;-90
2021/11/15 03:13:25;;;;;;;26.42;12.07;;;7.40;90.40;;;;;;5033223;28;20394;-91
2021/11/15 03:15:52;;;;;;;26.77;12.35;;;7.40;90.30;;;;;;5033158;28;20415;-90
2021/11/15 03:18:22;;;;;;;23.45;11.73;;;7.40;90.30;;;;;;5033151;28;20390;-91
2021/11/15 03:21:10;;;;;;;26.80;11.67;;;7.40;90.20;;;;;;5032846;28;20439;-90
2021/11/15 03:23:38;;;;;;;22.85;11.52;;;7.40;90.20;;;;;;5015111;28;20486;-90
2021/11/15 03:26:04;;;;;;;25.27;11.83;;;7.40;90.10;;;;;;5033024;28;20930;-91
2021/11/15 03:28:33;;;;;;;25.48;12.05;;;7.40;90.30;;;;;;5032707;28;20483;-90
2021/11/15 03:31:03;;;;;;;24.58;12.95;;;7.40;90.40;;;;;;5014695;28;20399;-89
2021/11/15 03:33:30;;;;;;;26.60;12.30;;;7.40;90.50;;;;;;5032696;28;20387;-90
2021/11/15 03:35:56;;;;;;;26.05;12.32;;;7.30;90.50;;;;;;5033115;28;20411;-91
2021/11/15 03:38:22;;;;;;;27.58;12.93;;;7.30;90.70;;;;;;5032740;28;20418;-90
2021/11/15 03:40:47;;;;;;;24.65;11.75;;;7.40;90.30;;;;;;5015109;28;20451;-89
2021/11/15 03:43:13;;;;;;;25.10;12.33;;;7.40;90.20;;;;;;5032383;28;20941;-90
2021/11/15 03:45:40;;;;;;;27.07;11.43;;;7.40;90.30;;;;;;5032358;28;20383;-90
2021/11/15 03:48:09;;;;;;;30.60;12.88;;;7.30;90.40;;;;;;5032442;28;20419;-90
2021/11/15 03:50:35;;;;;;;26.67;12.48;;;7.20;90.60;;;;;;5014715;28;20391;-89
2021/11/15 03:53:02;;;;;;;26.73;11.53;;;7.20;91.00;;;;;;5032614;28;20878;-91
2021/11/15 03:55:28;;;;;;;26.77;12.48;;;7.30;90.90;;;;;;5032323;28;20383;-90
2021/11/15 03:57:54;;;;;;;26.15;12.38;;;7.30;90.50;;;;;;5032509;28;20426;-89
2021/11/15 04:00:24;;;;;;;30.35;13.60;;;7.20;90.70;;;;;;5032072;28;20426;-89
2021/11/15 04:02:56;;;;;;;28.70;12.90;;;7.30;90.80;;;;;;5032084;28;20387;-90
2021/11/15 04:05:29;;;;;;;27.60;12.38;;;7.30;90.90;;;;;;5014592;28;20430;-90
2021/11/15 04:07:56;;;;;;;33.08;13.77;;;7.20;90.70;;;;;;5032157;28;20379;-89
2021/11/15 04:10:34;;;;;;;29.33;12.82;;;7.20;90.60;;;;;;5032322;28;20490;-91
2021/11/15 04:13:15;;;;;;;28.70;12.90;;;7.20;90.80;;;;;;5014517;28;20383;-91
2021/11/15 04:15:41;;;;;;;28.08;12.95;;;7.20;90.90;;;;;;5014765;28;20387;-90
2021/11/15 04:18:09;;;;;;;28.00;12.65;;;7.20;90.60;;;;;;5032109;28;20383;-90
2021/11/15 04:20:36;;;;;;;31.45;13.73;;;7.10;90.70;;;;;;5014641;28;20811;-89
2021/11/15 04:23:02;;;;;;;27.15;12.65;;;7.10;90.50;;;;;;5014379;28;20414;-90
2021/11/15 04:25:29;;;;;;;27.70;12.93;;;7.20;90.50;;;;;;5032076;28;20386;-90
2021/11/15 04:27:55;;;;;;;26.60;12.15;;;7.10;90.60;;;;;;5013943;28;20406;-89
2021/11/15 04:30:20;;;;;;;25.33;12.95;;;7.10;90.60;;;;;;5031867;28;20379;-91
2021/11/15 04:32:46;;;;;;;27.73;12.32;;;7.10;90.60;;;;;;5014314;28;20387;-91
2021/11/15 04:35:14;;;;;;;27.83;12.23;;;7.20;90.60;;;;;;5031863;28;20397;-91
2021/11/15 04:37:40;;;;;;;25.10;12.13;;;7.10;90.30;;;;;;5014687;28;20394;-90
2021/11/15 04:40:08;;;;;;;25.58;11.73;;;7.20;90.30;;;;;;5014231;28;20411;-90
2021/11/15 04:42:34;;;;;;;24.27;11.13;;;7.20;90.20;;;;;;5014617;28;20398;-90
2021/11/15 04:45:00;;;;;;;27.55;11.55;;;7.10;90.30;;;;;;5013852;28;20474;-90
2021/11/15 04:47:26;;;;;;;24.70;11.37;;;7.10;90.20;;;;;;5014267;28;20474;-89
2021/11/15 04:49:51;;;;;;;23.03;10.73;;;7.10;90.00;;;;;;5031464;28;20882;-91
2021/11/15 04:52:17;;;;;;;25.77;11.50;;;7.10;90.20;;;;;;5031873;28;20479;-91
2021/11/15 04:54:43;;;;;;;23.03;11.83;;;7.10;90.00;;;;;;5014112;28;20390;-92
2021/11/15 04:57:08;;;;;;;23.53;10.37;;;7.20;89.90;;;;;;5014375;28;20883;-90
2021/11/15 04:59:34;;;;;;;27.10;11.47;;;7.10;90.00;;;;;;5032618;28;20911;-90
2021/11/15 05:02:00;;;;;;;28.80;12.60;;;7.10;90.10;;;;;;5035317;28;20423;-91
2021/11/15 05:04:25;;;;;;;24.43;11.83;;;7.10;90.10;;;;;;5035585;28;20693;-90
2021/11/15 05:06:51;;;;;;;27.43;12.07;;;7.10;90.10;;;;;;5017688;28;20383;-91
2021/11/15 05:09:17;;;;;;;24.57;11.80;;;7.20;90.30;;;;;;5035559;28;20390;-90
2021/11/15 05:11:42;;;;;;;26.17;12.67;;;7.20;90.10;;;;;;5035272;28;20741;-90
2021/11/15 05:14:08;;;;;;;23.07;11.23;;;7.20;90.20;;;;;;5035410;28;20397;-89
2021/11/15 05:16:34;;;;;;;26.63;11.73;;;7.10;90.20;;;;;;5035282;28;20375;-90
2021/11/15 05:19:00;;;;;;;24.33;11.43;;;7.10;90.20;;;;;;5035020;28;20410;-91
2021/11/15 05:21:26;;;;;;;22.23;10.50;;;7.00;89.90;;;;;;5035100;28;20413;-90
2021/11/15 05:23:52;;;;;;;28.02;11.35;;;7.10;89.90;;;;;;5017775;28;20419;-91
2021/11/15 05:26:18;;;;;;;22.33;11.35;;;7.20;89.90;;;;;;5017343;28;20383;-90
2021/11/15 05:28:44;;;;;;;22.55;11.25;;;7.10;89.80;;;;;;5017396;28;20438;-91
2021/11/15 05:31:09;;;;;;;25.00;11.47;;;7.10;90.10;;;;;;5017368;28;20428;-91
2021/11/15 05:33:36;;;;;;;24.05;11.50;;;7.10;90.10;;;;;;5034799;28;20387;-90
2021/11/15 05:36:02;;;;;;;26.53;11.93;;;7.10;89.90;;;;;;5035232;28;20391;-90
2021/11/15 05:38:28;;;;;;;23.48;10.82;;;7.10;89.90;;;;;;5034797;28;20379;-90
2021/11/15 05:40:53;;;;;;;26.00;12.00;;;7.10;90.00;;;;;;5035241;28;20437;-90
2021/11/15 05:43:19;;;;;;;29.97;12.10;;;7.00;90.00;;;;;;5017042;28;20825;-90
2021/11/15 05:45:45;;;;;;;24.27;11.97;;;7.00;90.20;;;;;;5017164;28;20906;-91
2021/11/15 05:48:10;;;;;;;26.30;12.38;;;7.00;90.50;;;;;;5034712;28;20387;-91
2021/11/15 05:50:36;;;;;;;29.73;12.18;;;6.90;90.20;;;;;;5017252;28;20482;-90
2021/11/15 05:53:02;;;;;;;30.38;12.57;;;7.00;90.30;;;;;;5034407;28;20465;-89
2021/11/15 05:55:28;;;;;;;22.70;11.95;;;6.80;90.30;;;;;;5035069;28;20411;-89
2021/11/15 05:57:57;;;;;;;27.20;12.38;;;6.80;90.50;;;;;;5016712;28;20376;-89
2021/11/15 06:00:27;;;;;;;26.38;12.25;;;6.80;90.50;;;;;;5016652;28;20461;-89
2021/11/15 06:02:53;;;;;;;27.40;12.13;;;6.90;90.60;;;;;;5017017;28;20387;-89
2021/11/15 06:05:19;;;;;;;27.30;11.68;;;6.90;90.60;;;;;;5014464;28;20900;-90
2021/11/15 06:07:45;;;;;;;27.20;12.25;;;6.90;90.40;;;;;;5014798;28;20431;-89
2021/11/15 06:10:11;;;;;;;29.88;12.38;;;6.90;90.30;;;;;;5014214;28;20392;-89
2021/11/15 06:12:38;;;;;;;26.00;12.50;;;6.90;90.30;;;;;;5014643;28;20392;-89
2021/11/15 06:15:05;;;;;;;30.10;12.90;;;6.90;90.30;;;;;;5014116;28;20461;-90
2021/11/15 06:17:30;;;;;;;26.42;12.25;;;6.90;90.40;;;;;;4999779;28;20392;-88
2021/11/15 06:19:56;;;;;;;27.77;12.07;;;6.80;90.60;;;;;;5012983;28;20399;-88
2021/11/15 06:22:22;;;;;;;28.73;12.37;;;6.90;90.80;;;;;;5014408;28;21050;-89
2021/11/15 06:24:47;;;;;;;29.23;12.27;;;6.90;90.40;;;;;;5014024;28;20476;-87
2021/11/15 06:27:16;;;;;;;29.20;11.67;;;6.80;90.50;;;;;;5014246;28;20454;-90
2021/11/15 06:29:43;;;;;;;28.52;12.43;;;6.80;90.90;;;;;;5013552;28;20439;-91
2021/11/15 06:32:09;;;;;;;28.23;11.73;;;6.80;90.80;;;;;;5013873;28;20446;-86
2021/11/15 06:34:35;;;;;;;27.65;11.93;;;6.80;90.80;;;;;;5014001;28;20377;-86
2021/11/15 06:37:01;;;;;;;31.98;12.48;;;6.60;90.80;;;;;;5012629;28;20450;-89
2021/11/15 06:39:27;;;;;;;28.55;12.10;;;6.70;91.10;;;;;;4996485;28;20901;-90
2021/11/15 06:41:56;;;;;;;35.08;12.07;;;6.70;91.00;;;;;;5013717;28;20377;-89
2021/11/15 06:44:22;;;;;;;32.90;12.02;;;6.60;91.10;;;;;;5014270;28;20384;-89
2021/11/15 06:46:49;;;;;;;30.70;11.93;;;6.60;91.20;;;;;;5013589;28;20485;-90
2021/11/15 06:49:14;;;;;;;32.33;11.93;;;6.70;91.20;;;;;;5013877;28;20395;-90
2021/11/15 06:51:41;;;;;;;32.47;13.73;;;6.70;91.10;;;;;;5013661;28;20381;-88
2021/11/15 06:54:06;;;;;;;33.45;12.52;;;6.70;91.10;;;;;;5024917;28;20486;-89
2021/11/15 06:56:32;;;;;;;28.05;11.60;;;6.80;90.90;;;;;;5018645;28;20919;-89
2021/11/15 06:58:58;;;;;;;26.90;10.98;;;6.80;90.80;;;;;;5008224;28;20422;-89
2021/11/15 07:01:23;;;;;;;29.73;10.75;;;6.80;90.70;;;;;;5033412;28;20402;-89
2021/11/15 07:03:49;;;;;;;27.77;10.50;;;6.60;90.80;;;;;;5033358;28;20395;-86
2021/11/15 07:06:15;;;;;;;31.30;11.07;;;6.50;91.00;;;;;;5033465;28;20785;-88
2021/11/15 07:08:41;;;;;;;22.60;9.15;;;6.50;91.00;;;;;;5033046;28;20494;-89
2021/11/15 07:11:07;;;;;;;23.07;10.07;;;6.50;90.90;;;;;;5015504;28;20542;-90
2021/11/15 07:13:32;;;;;;;25.35;10.38;;;6.60;91.10;;;;;;5032991;28;20419;-89
2021/11/15 07:15:58;;;;;;;27.10;10.27;;;6.60;90.90;;;;;;5015361;28;20889;-87
2021/11/15 07:18:26;;;;;;;26.60;9.57;;;6.50;90.90;;;;;;5032610;28;20505;-88
2021/11/15 07:20:52;;;;;;;23.00;10.45;;;6.50;91.00;;;;;;5015589;28;20391;-89
2021/11/15 07:23:18;;;;;;;23.77;9.43;;;6.60;91.20;;;;;;5014032;28;20387;-89
2021/11/15 07:25:43;;;;;;;21.05;8.93;;;6.60;91.00;;;;;;5014959;28;20398;-90
2021/11/15 07:28:09;;;;;;;24.25;8.30;;;6.40;90.90;;;;;;5031602;28;20486;-89
2021/11/15 07:30:35;;;;;;;21.67;8.70;;;6.40;90.90;;;;;;5014868;28;20444;-90
2021/11/15 07:33:01;;;;;;;20.20;8.60;;;6.40;90.70;;;;;;5032924;28;20406;-89
2021/11/15 07:35:26;;;;;;;28.43;12.17;;;6.40;91.20;;;;;;5015082;28;20406;-90
2021/11/15 07:37:52;;;;;;;28.00;12.00;;;6.50;91.10;;;;;;5032865;28;20387;-90
2021/11/15 07:40:19;;;;;;;29.13;11.63;;;6.50;91.00;;;;;;5032364;28;20946;-91
2021/11/15 07:42:45;;;;;;;24.58;10.38;;;6.60;90.90;;;;;;5015021;28;20394;-90
2021/11/15 07:45:11;;;;;;;23.65;10.35;;;6.50;90.70;;;;;;5032435;28;20799;-88
2021/11/15 07:47:37;;;;;;;26.27;11.27;;;6.50;91.00;;;;;;5015180;28;20867;-90
2021/11/15 07:50:04;;;;;;;27.35;11.52;;;6.50;91.00;;;;;;5032309;28;20387;-89
2021/11/15 07:52:31;;;;;;;29.80;11.48;;;6.50;90.80;;;;;;5032612;28;20402;-90
2021/11/15 07:54:57;;;;;;;23.15;10.73;;;6.40;91.10;;;;;;5014623;28;20387;-90
2021/11/15 07:57:23;;;;;;;26.00;11.65;;;6.50;91.20;;;;;;5014342;28;20490;-91
2021/11/15 07:59:48;;;;;;;26.35;11.95;;;6.40;91.30;;;;;;5032305;28;20414;-91
2021/11/15 08:02:14;;;;;;;26.13;11.88;;;6.50;91.40;;;;;;5014568;28;20398;-89
2021/11/15 08:04:41;;;;;;;25.83;11.45;;;6.50;91.50;;;;;;5032459;28;20434;-88
2021/11/15 08:07:06;;;;;;;30.30;12.20;;;6.50;91.50;;;;;;5032159;28;20383;-89
2021/11/15 08:09:32;;;;;;;29.27;12.77;;;6.50;91.40;;;;;;5014976;28;20852;-89
2021/11/15 08:12:05;;;;;;;34.67;14.00;;;6.50;91.50;;;;;;5032013;28;20394;-89
2021/11/15 08:14:32;;;;;;;38.60;17.58;;;6.60;91.50;;;;;;5031943;28;20390;-90
2021/11/15 08:16:58;;;;;;;34.35;14.95;;;6.60;91.50;;;;;;5014291;28;20418;-90
2021/11/15 08:19:23;;;;;;;35.55;14.55;;;6.60;91.90;;;;;;5032035;28;20419;-91
2021/11/15 08:21:49;;;;;;;32.30;14.30;;;6.60;91.50;;;;;;5031800;28;20383;-91
2021/11/15 08:24:17;;;;;;;36.83;15.43;;;6.60;91.80;;;;;;5032065;28;20391;-89
2021/11/15 08:26:49;;;;;;;32.75;14.18;;;6.70;91.60;;;;;;5031951;28;20387;-91
2021/11/15 08:29:14;;;;;;;37.78;15.05;;;6.60;91.70;;;;;;5032119;28;20756;-90
2021/11/15 08:31:43;;;;;;;35.40;15.07;;;6.70;91.80;;;;;;5014106;28;20413;-90
2021/11/15 08:34:09;;;;;;;34.58;14.15;;;6.60;91.60;;;;;;5032089;28;20386;-91
2021/11/15 08:36:37;;;;;;;36.80;13.48;;;6.70;91.60;;;;;;5036213;28;20383;-89
2021/11/15 08:39:11;;;;;;;33.67;13.80;;;6.60;91.50;;;;;;5035659;28;20769;-89
2021/11/15 08:41:40;;;;;;;35.42;12.85;;;6.50;91.90;;;;;;5036070;28;20379;-91
2021/11/15 08:44:10;;;;;;;27.70;11.30;;;6.60;91.80;;;;;;5035535;28;20441;-88
2021/11/15 08:46:36;;;;;;;25.30;10.95;;;6.50;91.70;;;;;;5036072;28;20379;-89
2021/11/15 08:49:05;;;;;;;28.13;10.55;;;6.50;91.70;;;;;;5035610;28;20390;-88
2021/11/15 08:51:31;;;;;;;28.00;10.20;;;6.50;91.80;;;;;;5018210;28;20399;-89
2021/11/15 08:53:59;;;;;;;25.92;10.82;;;6.50;91.60;;;;;;5035913;28;20796;-89
2021/11/15 08:56:26;;;;;;;22.42;9.80;;;6.60;91.60;;;;;;5028608;28;20381;-89
2021/11/15 08:58:52;;;;;;;23.40;9.35;;;6.50;91.10;;;;;;5016030;28;20408;-89
2021/11/15 09:01:18;;;;;;;23.20;9.82;;;6.50;91.30;;;;;;4998073;28;20861;-89
2021/11/15 09:03:46;;;;;;;23.00;9.38;;;6.50;91.40;;;;;;5015774;28;20427;-89
2021/11/15 09:06:14;;;;;;;25.37;10.50;;;6.50;91.20;;;;;;5015742;28;20380;-88
2021/11/15 09:08:41;;;;;;;26.00;9.48;;;6.60;91.20;;;;;;5015908;28;20408;-88
2021/11/15 09:11:07;;;;;;;20.88;10.05;;;6.60;91.10;;;;;;4998152;28;20384;-90
2021/11/15 09:13:34;;;;;;;23.60;9.68;;;6.60;91.20;;;;;;4998476;28;20399;-89
2021/11/15 09:16:00;;;;;;;25.38;9.93;;;6.70;91.00;;;;;;5015337;28;20412;-89
2021/11/15 09:18:26;;;;;;;22.63;9.60;;;6.70;91.00;;;;;;5015053;28;20385;-90
2021/11/15 09:20:52;;;;;;;18.35;8.65;;;6.70;91.10;;;;;;5015469;28;20742;-89
2021/11/15 09:23:18;;;;;;;22.20;8.95;;;6.70;91.10;;;;;;5014848;28;20392;-89
2021/11/15 09:25:44;;;;;;;20.03;9.13;;;6.70;91.00;;;;;;5015461;28;20412;-90
2021/11/15 09:28:11;;;;;;;25.73;9.65;;;6.70;91.00;;;;;;5015019;28;20480;-90
2021/11/15 09:30:39;;;;;;;23.67;9.32;;;6.60;91.40;;;;;;5008734;28;20403;-90
2021/11/15 09:33:05;;;;;;;23.17;8.73;;;6.70;91.60;;;;;;5017323;28;20402;-87
2021/11/15 09:35:30;;;;;;;22.38;10.15;;;6.60;91.30;;;;;;5035098;28;20462;-89
2021/11/15 09:37:56;;;;;;;22.20;9.80;;;6.60;91.30;;;;;;5034857;28;20471;-89
2021/11/15 09:40:22;;;;;;;23.20;10.03;;;6.50;91.60;;;;;;5034778;28;20442;-90
2021/11/15 09:42:49;;;;;;;20.05;9.43;;;6.60;91.30;;;;;;5034745;28;20383;-89
2021/11/15 09:45:15;;;;;;;24.42;9.70;;;6.60;91.00;;;;;;5034306;28;20384;-90
2021/11/15 09:47:41;;;;;;;20.67;8.20;;;6.60;91.30;;;;;;5034643;28;20383;-89
2021/11/15 09:50:11;;;;;;;21.27;9.35;;;6.50;91.10;;;;;;5034655;28;20486;-87
2021/11/15 09:52:37;;;;;;;17.63;8.90;;;6.50;91.20;;;;;;5034602;28;20395;-89
2021/11/15 09:55:04;;;;;;;21.83;9.43;;;6.50;91.30;;;;;;5017040;28;20379;-90
2021/11/15 09:57:33;;;;;;;22.95;9.63;;;6.50;91.50;;;;;;5034680;28;20418;-89
2021/11/15 09:59:59;;;;;;;21.92;9.68;;;6.50;91.40;;;;;;5033930;28;20422;-90
2021/11/15 10:02:24;;;;;;;23.40;10.10;;;6.50;91.30;;;;;;5016546;28;20748;-88
2021/11/15 10:04:50;;;;;;;23.03;9.50;;;6.40;91.50;;;;;;5034459;28;20802;-87
2021/11/15 10:07:33;;;;;;;21.63;9.40;;;6.40;91.60;;;;;;5034236;28;20375;-88
2021/11/15 10:10:28;;;;;;;21.17;8.85;;;6.50;91.70;;;;;;5034156;28;20627;-90
2021/11/15 10:13:26;;;;;;;19.40;9.00;;;6.50;91.20;;;;;;5016542;28;20383;-89
2021/11/15 10:15:59;;;;;;;21.37;9.10;;;6.60;91.10;;;;;;5016723;28;20451;-89
2021/11/15 10:18:57;;;;;;;19.17;8.60;;;6.60;91.30;;;;;;5033930;28;20384;-89
2021/11/15 10:21:32;;;;;;;20.33;8.85;;;6.60;90.80;;;;;;5021738;28;20868;-89
2021/11/15 10:24:15;;;;;;;19.20;9.32;;;6.60;90.80;;;;;;5033999;28;20415;-90
2021/11/15 10:26:46;;;;;;;17.73;8.57;;;6.70;90.80;;;;;;5033997;28;20384;-89
2021/11/15 10:29:22;;;;;;;24.75;9.57;;;6.70;90.70;;;;;;5034149;28;20411;-89
2021/11/15 10:32:02;;;;;;;18.23;9.00;;;6.70;90.50;;;;;;5016222;28;20747;-89
2021/11/15 10:34:42;;;;;;;17.80;8.30;;;6.60;90.50;;;;;;5034131;28;20389;-89
2021/11/15 10:37:18;;;;;;;19.52;7.97;;;6.60;90.10;;;;;;5033800;28;20794;-89
2021/11/15 10:39:51;;;;;;;18.58;8.52;;;6.50;89.50;;;;;;5033645;28;20447;-89
2021/11/15 10:42:35;;;;;;;21.90;8.60;;;6.50;89.70;;;;;;5033701;28;20771;-89
2021/11/15 10:45:14;;;;;;;18.77;9.25;;;6.60;89.90;;;;;;5015915;28;20395;-89
2021/11/15 10:47:41;;;;;;;19.20;8.75;;;6.70;89.80;;;;;;5033590;28;20388;-90
2021/11/15 10:50:44;;;;;;;17.02;8.00;;;6.70;89.60;;;;;;5015777;28;20887;-89
2021/11/15 10:53:22;;;;;;;15.40;7.50;;;6.70;88.80;;;;;;5032191;28;20403;-89
2021/11/15 10:56:26;;;;;;;17.55;7.55;;;6.70;88.70;;;;;;5033818;28;20419;-89
2021/11/15 10:58:52;;;;;;;13.10;6.20;;;6.60;87.30;;;;;;5032643;28;20411;-89
2021/11/15 11:01:27;;;;;;;15.23;6.70;;;6.60;87.70;;;;;;5033478;28;20387;-89
2021/11/15 11:04:09;;;;;;;15.00;7.18;;;6.70;88.20;;;;;;5033264;28;20418;-89
2021/11/15 11:06:57;;;;;;;15.40;6.72;;;6.80;88.20;;;;;;5015321;28;20387;-89
2021/11/15 11:09:33;;;;;;;15.05;7.13;;;6.70;87.70;;;;;;5015585;28;20722;-89
2021/11/15 11:12:23;;;;;;;14.50;6.88;;;6.80;87.70;;;;;;5032824;28;20482;-89
2021/11/15 11:14:52;;;;;;;16.90;7.05;;;6.70;87.40;;;;;;5032279;28;20397;-90
2021/11/15 11:17:17;;;;;;;16.27;7.00;;;6.80;87.70;;;;;;5032950;28;20379;-89
2021/11/15 11:20:51;;;;;;;15.43;7.47;;;6.70;87.20;;;;;;5015482;28;20765;-89
2021/11/15 11:23:45;;;;;;;18.38;7.63;;;6.80;88.10;;;;;;5029909;28;20930;-90
2021/11/15 11:26:15;;;;;;;16.40;7.65;;;6.80;88.00;;;;;;5026834;28;20417;-89
2021/11/15 11:28:44;;;;;;;18.25;7.47;;;6.80;87.00;;;;;;4998061;28;20401;-89
2021/11/15 11:31:11;;;;;;;20.77;9.02;;;6.80;87.20;;;;;;4995231;28;20457;-89
2021/11/15 11:33:37;;;;;;;19.05;8.07;;;6.80;87.20;;;;;;5012925;28;20381;-90
2021/11/15 11:36:05;;;;;;;18.35;8.10;;;6.70;86.90;;;;;;4995512;28;20479;-89
2021/11/15 11:38:33;;;;;;;18.20;8.47;;;6.70;87.20;;;;;;4995161;28;20401;-88
2021/11/15 11:40:59;;;;;;;18.60;8.07;;;6.70;86.90;;;;;;5013080;28;20412;-90
2021/11/15 11:43:25;;;;;;;23.83;8.80;;;6.70;87.30;;;;;;5012573;28;20393;-89
2021/11/15 11:45:50;;;;;;;20.77;9.00;;;6.70;86.90;;;;;;4995447;28;20452;-89
2021/11/15 11:48:17;;;;;;;17.35;7.97;;;6.70;86.90;;;;;;5021632;28;20389;-91
2021/11/15 11:50:47;;;;;;;20.30;8.07;;;6.70;86.70;;;;;;5014702;28;20395;-90
2021/11/15 11:53:20;;;;;;;22.73;7.93;;;6.60;86.70;;;;;;5032192;28;20386;-90
2021/11/15 11:55:46;;;;;;;19.88;9.20;;;6.60;86.80;;;;;;5020551;28;20397;-88
2021/11/15 11:58:31;;;;;;;22.33;7.80;;;6.60;86.40;;;;;;4994630;28;20392;-88
2021/11/15 12:00:59;;;;;;;23.55;8.68;;;6.60;87.00;;;;;;5012347;28;20420;-88
2021/11/15 12:03:26;;;;;;;17.73;7.65;;;6.70;87.10;;;;;;4995204;28;20800;-89
2021/11/15 12:05:57;;;;;;;18.67;7.70;;;6.70;86.90;;;;;;5012305;28;20392;-89
2021/11/15 12:08:50;;;;;;;14.82;7.30;;;6.70;86.80;;;;;;5012406;28;20392;-89
2021/11/15 12:11:29;;;;;;;16.92;7.35;;;6.70;86.20;;;;;;4994666;28;20411;-90
2021/11/15 12:13:56;;;;;;;21.27;7.93;;;6.70;86.60;;;;;;5012194;28;20396;-89
2021/11/15 12:16:45;;;;;;;17.48;7.40;;;6.80;86.70;;;;;;4995190;28;20456;-89
2021/11/15 12:19:10;;;;;;;19.67;7.93;;;6.80;86.70;;;;;;5011679;28;20448;-90
2021/11/15 12:21:37;;;;;;;18.05;7.47;;;6.60;86.30;;;;;;5012654;28;20416;-90
2021/11/15 12:24:16;;;;;;;20.20;7.63;;;6.70;86.70;;;;;;5012176;28;20385;-90
2021/11/15 12:26:50;;;;;;;20.00;7.38;;;6.70;86.60;;;;;;5012257;28;20386;-89
2021/11/15 12:29:19;;;;;;;18.30;8.40;;;6.70;86.40;;;;;;4994451;28;20408;-90
2021/11/15 12:31:46;;;;;;;17.77;7.90;;;6.70;86.50;;;;;;5012262;28;20389;-91
2021/11/15 12:34:11;;;;;;;18.45;8.07;;;6.70;86.10;;;;;;5011688;28;20881;-90
2021/11/15 12:36:40;;;;;;;17.05;8.02;;;6.70;86.30;;;;;;5011761;28;20385;-89
2021/11/15 12:39:18;;;;;;;20.63;7.43;;;6.80;86.90;;;;;;5012122;28;20764;-89
2021/11/15 12:41:50;;;;;;;18.45;7.60;;;6.80;86.30;;;;;;5012170;28;20385;-89
2021/11/15 12:44:17;;;;;;;21.77;8.30;;;6.70;86.00;;;;;;5011084;28;20399;-90
2021/11/15 12:46:53;;;;;;;24.80;10.60;;;6.60;86.00;;;;;;5012028;28;20405;-90